logo
Search for airport 
image banner adimage banner adimage banner ad
image banner ad

TFFS - Les Saintes Terre De Haut

Located in Terre De Haut, Guadeloupe

ICAO - TFFS, IATA - LSS

Data provided by Airmate  

General information

Coordinates: N15°51'52" W61°34'50"
Elevation is 44 feet MSL.
Magnetic variation is -14.91° East
Rated:
View ratings:
[VIEW]
View others Airports in (unassigned)

Operational data

Special qualification required
Current time UTC:
Current local time:
Weather at : TFFR - Pointe A Pitre Le Raizet ( 45 km )
METAR: TFFR 070030Z AUTO 11006KT 9999 ///TCU 23/20 Q1017
TAF: TAF TFFR 041700Z 0418/0518 10015KT 9999 SCT030 PROB30 TEMPO 0418/0424 10015G25KT 4000 SHRA SCT020TCU BECMG 0500/0502 10005KT BECMG 0511/0513 09015G25KT
View NOTAMs / SUP AIP / TFR affecting this airport [VIEW]
Communications frequencies: [VIEW]

Runways:

RWY identifierQFULength (ft)Width (ft)SurfaceLDA (ft)
0974°190349CONC1903
27254°190349CONC1903

Airport contact information

Address: Terre De Haut Guadeloupe

Satellite view of TFFS